sensor_id;sensor_type;location;lat;lon;timestamp;pressure;altitude;pressure_sealevel;temperature;humidity
59419;BME280;45224;50.904;6.038;2023-04-07T00:00:07;99650.84;;;8.85;100.00
59419;BME280;45224;50.904;6.038;2023-04-07T00:01:44;99647.38;;;8.77;100.00
59419;BME280;45224;50.904;6.038;2023-04-07T00:03:14;99664.59;;;8.87;100.00
59419;BME280;45224;50.904;6.038;2023-04-07T00:04:45;99657.72;;;8.89;100.00
59419;BME280;45224;50.904;6.038;2023-04-07T00:06:15;99653.44;;;8.88;100.00
59419;BME280;45224;50.904;6.038;2023-04-07T00:07:46;99654.28;;;8.90;100.00
59419;BME280;45224;50.904;6.038;2023-04-07T00:09:16;99652.53;;;8.83;100.00
59419;BME280;45224;50.904;6.038;2023-04-07T00:10:47;99651.69;;;8.87;100.00
59419;BME280;45224;50.904;6.038;2023-04-07T00:12:17;99654.28;;;8.89;100.00
59419;BME280;45224;50.904;6.038;2023-04-07T00:13:48;99649.97;;;8.89;100.00
59419;BME280;45224;50.904;6.038;2023-04-07T00:15:18;99650.84;;;8.85;100.00
59419;BME280;45224;50.904;6.038;2023-04-07T00:16:49;99648.28;;;8.87;100.00
59419;BME280;45224;50.904;6.038;2023-04-07T00:18:19;99655.09;;;8.82;100.00
59419;BME280;45224;50.904;6.038;2023-04-07T00:19:49;99644.78;;;8.82;100.00
59419;BME280;45224;50.904;6.038;2023-04-07T00:21:20;99656.00;;;8.85;100.00
59419;BME280;45224;50.904;6.038;2023-04-07T00:22:50;99655.13;;;8.86;100.00
59419;BME280;45224;50.904;6.038;2023-04-07T00:24:21;99658.56;;;8.84;100.00
59419;BME280;45224;50.904;6.038;2023-04-07T00:25:51;99651.63;;;8.75;100.00
59419;BME280;45224;50.904;6.038;2023-04-07T00:27:22;99655.09;;;8.83;100.00
59419;BME280;45224;50.904;6.038;2023-04-07T00:28:52;99657.69;;;8.80;100.00
59419;BME280;45224;50.904;6.038;2023-04-07T00:30:23;99651.66;;;8.78;100.00
59419;BME280;45224;50.904;6.038;2023-04-07T00:31:53;99649.06;;;8.78;100.00
59419;BME280;45224;50.904;6.038;2023-04-07T00:33:24;99646.50;;;8.81;100.00
59419;BME280;45224;50.904;6.038;2023-04-07T00:34:55;99648.25;;;8.82;100.00
59419;BME280;45224;50.904;6.038;2023-04-07T00:36:25;99649.09;;;8.81;100.00
59419;BME280;45224;50.904;6.038;2023-04-07T00:37:56;99652.53;;;8.86;100.00
59419;BME280;45224;50.904;6.038;2023-04-07T00:39:27;99644.78;;;8.82;100.00
59419;BME280;45224;50.904;6.038;2023-04-07T00:40:58;99641.34;;;8.81;100.00
59419;BME280;45224;50.904;6.038;2023-04-07T00:42:28;99643.09;;;8.85;100.00
59419;BME280;45224;50.904;6.038;2023-04-07T00:43:59;99642.22;;;8.83;100.00
59419;BME280;45224;50.904;6.038;2023-04-07T00:45:30;99649.97;;;8.79;100.00
59419;BME280;45224;50.904;6.038;2023-04-07T00:47:01;99644.78;;;8.82;100.00
59419;BME280;45224;50.904;6.038;2023-04-07T00:48:31;99651.66;;;8.81;100.00
59419;BME280;45224;50.904;6.038;2023-04-07T00:50:03;99641.34;;;8.78;100.00
59419;BME280;45224;50.904;6.038;2023-04-07T00:51:34;99646.50;;;8.80;100.00
59419;BME280;45224;50.904;6.038;2023-04-07T00:53:05;99643.09;;;8.82;100.00
59419;BME280;45224;50.904;6.038;2023-04-07T00:54:37;99648.25;;;8.84;100.00
59419;BME280;45224;50.904;6.038;2023-04-07T00:56:08;99642.22;;;8.82;100.00
59419;BME280;45224;50.904;6.038;2023-04-07T00:57:39;99649.97;;;8.85;100.00
59419;BME280;45224;50.904;6.038;2023-04-07T00:59:10;99650.81;;;8.82;100.00
59419;BME280;45224;50.904;6.038;2023-04-07T01:01:07;99649.03;;;8.70;100.00
59419;BME280;45224;50.904;6.038;2023-04-07T01:02:42;99649.06;;;8.75;100.00
59419;BME280;45224;50.904;6.038;2023-04-07T01:04:36;99652.47;;;8.71;100.00
59419;BME280;45224;50.904;6.038;2023-04-07T01:06:13;99649.03;;;8.72;100.00
59419;BME280;45224;50.904;6.038;2023-04-07T01:07:58;99649.91;;;8.72;100.00
59419;BME280;45224;50.904;6.038;2023-04-07T01:09:44;99647.28;;;8.62;100.00
59419;BME280;45224;50.904;6.038;2023-04-07T01:11:32;99642.97;;;8.62;100.00
59419;BME280;45224;50.904;6.038;2023-04-07T01:13:29;99649.00;;;8.59;100.00
59419;BME280;45224;50.904;6.038;2023-04-07T01:15:12;99647.31;;;8.68;100.00
59419;BME280;45224;50.904;6.038;2023-04-07T01:16:49;99649.88;;;8.66;100.00
59419;BME280;45224;50.904;6.038;2023-04-07T01:18:30;99637.84;;;8.68;100.00
59419;BME280;45224;50.904;6.038;2023-04-07T01:20:02;99649.03;;;8.66;100.00
59419;BME280;45224;50.904;6.038;2023-04-07T01:21:39;99649.03;;;8.66;100.00
59419;BME280;45224;50.904;6.038;2023-04-07T01:23:21;99649.03;;;8.69;100.00
59419;BME280;45224;50.904;6.038;2023-04-07T01:27:04;99647.28;;;8.65;100.00
59419;BME280;45224;50.904;6.038;2023-04-07T01:28:48;99649.03;;;8.66;100.00
59419;BME280;45224;50.904;6.038;2023-04-07T01:30:27;99649.88;;;8.68;100.00
59419;BME280;45224;50.904;6.038;2023-04-07T01:32:03;99642.16;;;8.69;100.00
59419;BME280;45224;50.904;6.038;2023-04-07T01:33:36;99650.69;;;8.62;100.00
59419;BME280;45224;50.904;6.038;2023-04-07T01:35:12;99636.97;;;8.65;100.00
59419;BME280;45224;50.904;6.038;2023-04-07T01:36:44;99655.91;;;8.73;100.00
59419;BME280;45224;50.904;6.038;2023-04-07T01:38:16;99647.31;;;8.68;100.00
59419;BME280;45224;50.904;6.038;2023-04-07T01:39:47;99643.00;;;8.67;100.00
59419;BME280;45224;50.904;6.038;2023-04-07T01:41:18;99649.03;;;8.66;100.00
59419;BME280;45224;50.904;6.038;2023-04-07T01:42:49;99650.72;;;8.64;100.00
59419;BME280;45224;50.904;6.038;2023-04-07T01:44:21;99655.91;;;8.70;100.00
59419;BME280;45224;50.904;6.038;2023-04-07T01:45:53;99651.59;;;8.70;100.00
59419;BME280;45224;50.904;6.038;2023-04-07T01:47:24;99657.63;;;8.68;100.00
59419;BME280;45224;50.904;6.038;2023-04-07T01:49:00;99660.22;;;8.71;100.00
59419;BME280;45224;50.904;6.038;2023-04-07T01:50:32;99659.34;;;8.72;100.00
59419;BME280;45224;50.904;6.038;2023-04-07T01:52:04;99661.06;;;8.70;100.00
59419;BME280;45224;50.904;6.038;2023-04-07T01:53:35;99649.00;;;8.63;100.00
59419;BME280;45224;50.904;6.038;2023-04-07T01:55:08;99661.06;;;8.70;100.00
59419;BME280;45224;50.904;6.038;2023-04-07T01:56:44;99655.91;;;8.68;100.00
59419;BME280;45224;50.904;6.038;2023-04-07T01:58:15;99661.00;;;8.57;100.00
59419;BME280;45224;50.904;6.038;2023-04-07T01:59:47;99661.03;;;8.67;100.00
59419;BME280;45224;50.904;6.038;2023-04-07T02:01:18;99658.47;;;8.67;100.00
59419;BME280;45224;50.904;6.038;2023-04-07T02:02:51;99656.75;;;8.64;100.00
59419;BME280;45224;50.904;6.038;2023-04-07T02:04:29;99653.28;;;8.65;100.00
59419;BME280;45224;50.904;6.038;2023-04-07T02:06:05;99660.19;;;8.68;100.00
59419;BME280;45224;50.904;6.038;2023-04-07T02:09:15;99661.94;;;8.69;100.00
59419;BME280;45224;50.904;6.038;2023-04-07T02:10:48;99662.75;;;8.65;100.00
59419;BME280;45224;50.904;6.038;2023-04-07T02:12:20;99661.03;;;8.67;100.00
59419;BME280;45224;50.904;6.038;2023-04-07T02:14:04;99664.44;;;8.59;100.00
59419;BME280;45224;50.904;6.038;2023-04-07T02:15:47;99658.44;;;8.57;100.00
59419;BME280;45224;50.904;6.038;2023-04-07T02:17:23;99668.72;;;8.54;100.00
59419;BME280;45224;50.904;6.038;2023-04-07T02:18:56;99660.97;;;8.59;100.00
59419;BME280;45224;50.904;6.038;2023-04-07T02:20:28;99669.63;;;8.63;100.00
59419;BME280;45224;50.904;6.038;2023-04-07T02:22:01;99666.16;;;8.61;100.00
59419;BME280;45224;50.904;6.038;2023-04-07T02:23:34;99661.91;;;8.63;100.00
59419;BME280;45224;50.904;6.038;2023-04-07T02:25:28;99667.03;;;8.61;100.00
59419;BME280;45224;50.904;6.038;2023-04-07T02:26:59;99670.47;;;8.62;100.00
59419;BME280;45224;50.904;6.038;2023-04-07T02:28:32;99661.84;;;8.56;100.00
59419;BME280;45224;50.904;6.038;2023-04-07T02:30:03;99666.19;;;8.64;100.00
59419;BME280;45224;50.904;6.038;2023-04-07T02:31:34;99670.50;;;8.68;100.00
59419;BME280;45224;50.904;6.038;2023-04-07T02:33:04;99670.44;;;8.58;100.00
59419;BME280;45224;50.904;6.038;2023-04-07T02:34:35;99663.56;;;8.59;100.00
59419;BME280;45224;50.904;6.038;2023-04-07T02:36:05;99667.00;;;8.58;100.00
59419;BME280;45224;50.904;6.038;2023-04-07T02:37:36;99664.38;;;8.50;100.00
59419;BME280;45224;50.904;6.038;2023-04-07T02:39:08;99661.81;;;8.52;100.00
59419;BME280;45224;50.904;6.038;2023-04-07T02:40:38;99662.56;;;8.37;100.00
59419;BME280;45224;50.904;6.038;2023-04-07T02:42:09;99668.66;;;8.47;100.00
59419;BME280;45224;50.904;6.038;2023-04-07T02:43:39;99660.06;;;8.43;100.00
59419;BME280;45224;50.904;6.038;2023-04-07T02:45:10;99668.69;;;8.50;100.00
59419;BME280;45224;50.904;6.038;2023-04-07T02:46:41;99666.09;;;8.48;100.00
59419;BME280;45224;50.904;6.038;2023-04-07T02:48:11;99666.94;;;8.49;100.00
59419;BME280;45224;50.904;6.038;2023-04-07T02:49:42;99674.72;;;8.53;100.00
59419;BME280;45224;50.904;6.038;2023-04-07T02:51:12;99665.25;;;8.52;100.00
59419;BME280;45224;50.904;6.038;2023-04-07T02:52:43;99675.56;;;8.52;100.00
59419;BME280;45224;50.904;6.038;2023-04-07T02:54:17;99673.78;;;8.44;100.00
59419;BME280;45224;50.904;6.038;2023-04-07T02:55:47;99674.66;;;8.47;100.00
59419;BME280;45224;50.904;6.038;2023-04-07T02:57:18;99672.94;;;8.49;100.00
59419;BME280;45224;50.904;6.038;2023-04-07T02:58:48;99677.28;;;8.53;100.00
59419;BME280;45224;50.904;6.038;2023-04-07T03:00:20;99672.16;;;8.55;100.00
59419;BME280;45224;50.904;6.038;2023-04-07T03:02:08;99676.44;;;8.54;100.00
59419;BME280;45224;50.904;6.038;2023-04-07T03:03:40;99675.53;;;8.49;100.00
59419;BME280;45224;50.904;6.038;2023-04-07T03:05:25;99672.97;;;8.52;100.00
59419;BME280;45224;50.904;6.038;2023-04-07T03:06:55;99671.28;;;8.51;100.00
59419;BME280;45224;50.904;6.038;2023-04-07T03:08:26;99673.88;;;8.54;100.00
59419;BME280;45224;50.904;6.038;2023-04-07T03:09:57;99673.00;;;8.57;100.00
59419;BME280;45224;50.904;6.038;2023-04-07T03:11:28;99670.41;;;8.54;100.00
59419;BME280;45224;50.904;6.038;2023-04-07T03:13:01;99674.75;;;8.59;100.00
59419;BME280;45224;50.904;6.038;2023-04-07T03:14:32;99661.81;;;8.52;100.00
59419;BME280;45224;50.904;6.038;2023-04-07T03:16:04;99661.00;;;8.54;100.00
59419;BME280;45224;50.904;6.038;2023-04-07T03:17:41;99671.31;;;8.57;100.00
59419;BME280;45224;50.904;6.038;2023-04-07T03:19:11;99670.44;;;8.58;100.00
59419;BME280;45224;50.904;6.038;2023-04-07T03:20:48;99667.84;;;8.55;100.00
59419;BME280;45224;50.904;6.038;2023-04-07T03:22:19;99673.91;;;8.57;100.00
59419;BME280;45224;50.904;6.038;2023-04-07T03:23:54;99673.03;;;8.58;100.00
59419;BME280;45224;50.904;6.038;2023-04-07T03:25:24;99674.72;;;8.55;100.00
59419;BME280;45224;50.904;6.038;2023-04-07T03:26:57;99668.72;;;8.53;100.00
59419;BME280;45224;50.904;6.038;2023-04-07T03:28:38;99669.56;;;8.53;100.00
59419;BME280;45224;50.904;6.038;2023-04-07T03:30:08;99672.13;;;8.50;100.00
59419;BME280;45224;50.904;6.038;2023-04-07T03:31:39;99662.66;;;8.45;100.00
59419;BME280;45224;50.904;6.038;2023-04-07T03:33:10;99676.44;;;8.51;100.00
59419;BME280;45224;50.904;6.038;2023-04-07T03:34:40;99669.53;;;8.52;100.00
59419;BME280;45224;50.904;6.038;2023-04-07T03:36:11;99667.81;;;8.52;100.00
59419;BME280;45224;50.904;6.038;2023-04-07T03:37:42;99677.28;;;8.52;100.00
59419;BME280;45224;50.904;6.038;2023-04-07T03:39:17;99671.28;;;8.54;100.00
59419;BME280;45224;50.904;6.038;2023-04-07T03:40:48;99669.59;;;8.56;100.00
59419;BME280;45224;50.904;6.038;2023-04-07T03:42:18;99672.94;;;8.49;100.00
59419;BME280;45224;50.904;6.038;2023-04-07T03:43:49;99675.56;;;8.52;100.00
59419;BME280;45224;50.904;6.038;2023-04-07T03:45:21;99682.38;;;8.46;100.00
59419;BME280;45224;50.904;6.038;2023-04-07T03:46:53;99671.16;;;8.42;100.00
59419;BME280;45224;50.904;6.038;2023-04-07T03:48:26;99667.69;;;8.35;100.00
59419;BME280;45224;50.904;6.038;2023-04-07T03:50:09;99676.31;;;8.42;100.00
59419;BME280;45224;50.904;6.038;2023-04-07T03:51:50;99672.94;;;8.43;100.00
59419;BME280;45224;50.904;6.038;2023-04-07T03:53:22;99678.13;;;8.46;100.00
59419;BME280;45224;50.904;6.038;2023-04-07T03:54:54;99674.66;;;8.47;100.00
59419;BME280;45224;50.904;6.038;2023-04-07T03:56:30;99671.09;;;8.34;100.00
59419;BME280;45224;50.904;6.038;2023-04-07T03:58:01;99674.56;;;8.38;100.00
59419;BME280;45224;50.904;6.038;2023-04-07T03:59:35;99676.28;;;8.39;100.00
59419;BME280;45224;50.904;6.038;2023-04-07T04:01:08;99678.88;;;8.39;100.00
59419;BME280;45224;50.904;6.038;2023-04-07T04:02:38;99676.38;;;8.45;100.00
59419;BME280;45224;50.904;6.038;2023-04-07T04:04:11;99678.09;;;8.43;100.00
59419;BME280;45224;50.904;6.038;2023-04-07T04:05:41;99676.31;;;8.42;100.00
59419;BME280;45224;50.904;6.038;2023-04-07T04:07:15;99678.09;;;8.43;100.00
59419;BME280;45224;50.904;6.038;2023-04-07T04:08:49;99680.59;;;8.37;100.00
59419;BME280;45224;50.904;6.038;2023-04-07T04:10:20;99680.63;;;8.41;100.00
59419;BME280;45224;50.904;6.038;2023-04-07T04:11:53;99681.53;;;8.45;100.00
59419;BME280;45224;50.904;6.038;2023-04-07T04:13:23;99683.25;;;8.43;100.00
59419;BME280;45224;50.904;6.038;2023-04-07T04:14:54;99682.31;;;8.41;100.00
59419;BME280;45224;50.904;6.038;2023-04-07T04:16:25;99677.22;;;8.44;100.00
59419;BME280;45224;50.904;6.038;2023-04-07T04:17:58;99673.69;;;8.36;100.00
59419;BME280;45224;50.904;6.038;2023-04-07T04:19:29;99680.56;;;8.35;100.00
59419;BME280;45224;50.904;6.038;2023-04-07T04:21:02;99678.00;;;8.37;100.00
59419;BME280;45224;50.904;6.038;2023-04-07T04:22:33;99681.47;;;8.42;100.00
59419;BME280;45224;50.904;6.038;2023-04-07T04:24:04;99686.56;;;8.33;100.00
59419;BME280;45224;50.904;6.038;2023-04-07T04:25:36;99687.41;;;8.29;100.00
59419;BME280;45224;50.904;6.038;2023-04-07T04:27:11;99690.84;;;8.31;100.00
59419;BME280;45224;50.904;6.038;2023-04-07T04:28:41;99692.59;;;8.33;100.00
59419;BME280;45224;50.904;6.038;2023-04-07T04:30:13;99689.06;;;8.22;100.00
59419;BME280;45224;50.904;6.038;2023-04-07T04:31:50;99691.66;;;8.27;100.00
59419;BME280;45224;50.904;6.038;2023-04-07T04:33:24;99691.69;;;8.30;100.00
59419;BME280;45224;50.904;6.038;2023-04-07T04:34:58;99690.81;;;8.26;100.00
59419;BME280;45224;50.904;6.038;2023-04-07T04:36:30;99698.47;;;8.18;100.00
59419;BME280;45224;50.904;6.038;2023-04-07T04:38:05;99694.22;;;8.22;100.00
59419;BME280;45224;50.904;6.038;2023-04-07T04:39:36;99690.75;;;8.21;100.00
59419;BME280;45224;50.904;6.038;2023-04-07T04:41:07;99691.63;;;8.20;100.00
59419;BME280;45224;50.904;6.038;2023-04-07T04:42:38;99694.22;;;8.23;100.00
59419;BME280;45224;50.904;6.038;2023-04-07T04:44:10;99697.66;;;8.22;100.00
59419;BME280;45224;50.904;6.038;2023-04-07T04:45:44;99693.34;;;8.21;100.00
59419;BME280;45224;50.904;6.038;2023-04-07T04:47:16;99698.41;;;8.14;100.00
59419;BME280;45224;50.904;6.038;2023-04-07T04:48:47;99700.22;;;8.21;100.00
59419;BME280;45224;50.904;6.038;2023-04-07T04:50:20;99701.91;;;8.19;100.00
59419;BME280;45224;50.904;6.038;2023-04-07T04:51:50;99696.75;;;8.19;100.00
59419;BME280;45224;50.904;6.038;2023-04-07T04:53:21;99700.22;;;8.22;100.00
59419;BME280;45224;50.904;6.038;2023-04-07T04:55:04;99693.34;;;8.21;100.00
59419;BME280;45224;50.904;6.038;2023-04-07T04:56:35;99708.69;;;8.09;100.00
59419;BME280;45224;50.904;6.038;2023-04-07T04:58:07;99710.47;;;8.16;100.00
59419;BME280;45224;50.904;6.038;2023-04-07T04:59:48;99709.53;;;8.07;100.00
59419;BME280;45224;50.904;6.038;2023-04-07T05:01:19;99715.44;;;7.95;100.00
59419;BME280;45224;50.904;6.038;2023-04-07T05:02:56;99716.38;;;8.03;100.00
59419;BME280;45224;50.904;6.038;2023-04-07T05:04:27;99721.44;;;7.95;100.00
59419;BME280;45224;50.904;6.038;2023-04-07T05:06:05;99719.75;;;8.00;100.00
59419;BME280;45224;50.904;6.038;2023-04-07T05:07:36;99723.16;;;7.95;100.00
59419;BME280;45224;50.904;6.038;2023-04-07T05:09:07;99722.31;;;7.99;100.00
59419;BME280;45224;50.904;6.038;2023-04-07T05:10:45;99725.34;;;7.58;100.00
59419;BME280;45224;50.904;6.038;2023-04-07T05:12:17;99732.47;;;7.82;100.00
59419;BME280;45224;50.904;6.038;2023-04-07T05:13:52;99725.56;;;7.79;100.00
59419;BME280;45224;50.904;6.038;2023-04-07T05:15:23;99727.31;;;7.80;100.00
59419;BME280;45224;50.904;6.038;2023-04-07T05:16:54;99729.88;;;7.80;100.00
59419;BME280;45224;50.904;6.038;2023-04-07T05:18:29;99733.41;;;7.89;100.00
59419;BME280;45224;50.904;6.038;2023-04-07T05:20:01;99729.78;;;7.71;100.00
59419;BME280;45224;50.904;6.038;2023-04-07T05:21:40;99735.88;;;7.79;100.00
59419;BME280;45224;50.904;6.038;2023-04-07T05:23:11;99729.00;;;7.81;100.00
59419;BME280;45224;50.904;6.038;2023-04-07T05:24:43;99737.63;;;7.83;100.00
59419;BME280;45224;50.904;6.038;2023-04-07T05:26:14;99737.50;;;7.71;100.00
59419;BME280;45224;50.904;6.038;2023-04-07T05:27:45;99727.19;;;7.71;100.00
59419;BME280;45224;50.904;6.038;2023-04-07T05:29:19;99728.91;;;7.69;100.00
59419;BME280;45224;50.904;6.038;2023-04-07T05:30:49;99733.16;;;7.65;100.00
59419;BME280;45224;50.904;6.038;2023-04-07T05:32:20;99741.63;;;7.58;100.00
59419;BME280;45224;50.904;6.038;2023-04-07T05:33:51;99730.59;;;7.70;100.00
59419;BME280;45224;50.904;6.038;2023-04-07T05:35:24;99740.09;;;7.74;100.00
59419;BME280;45224;50.904;6.038;2023-04-07T05:36:58;99743.56;;;7.78;100.00
59419;BME280;45224;50.904;6.038;2023-04-07T05:38:29;99737.44;;;7.65;100.00
59419;BME280;45224;50.904;6.038;2023-04-07T05:40:03;99739.16;;;7.66;100.00
59419;BME280;45224;50.904;6.038;2023-04-07T05:41:34;99739.28;;;7.75;100.00
59419;BME280;45224;50.904;6.038;2023-04-07T05:43:06;99730.69;;;7.76;100.00
59419;BME280;45224;50.904;6.038;2023-04-07T05:44:37;99746.13;;;7.76;100.00
59419;BME280;45224;50.904;6.038;2023-04-07T05:46:08;99745.28;;;7.77;100.00
59419;BME280;45224;50.904;6.038;2023-04-07T05:47:44;99746.19;;;7.81;100.00
59419;BME280;45224;50.904;6.038;2023-04-07T05:49:20;99736.72;;;7.77;100.00
59419;BME280;45224;50.904;6.038;2023-04-07T05:50:55;99753.94;;;7.85;100.00
59419;BME280;45224;50.904;6.038;2023-04-07T05:52:25;99747.91;;;7.80;100.00
59419;BME280;45224;50.904;6.038;2023-04-07T05:54:05;99743.59;;;7.81;100.00
59419;BME280;45224;50.904;6.038;2023-04-07T05:55:36;99756.50;;;7.82;100.00
59419;BME280;45224;50.904;6.038;2023-04-07T05:57:09;99744.47;;;7.81;100.00
59419;BME280;45224;50.904;6.038;2023-04-07T05:58:44;99753.13;;;7.86;100.00
59419;BME280;45224;50.904;6.038;2023-04-07T06:00:17;99754.81;;;7.88;100.00
59419;BME280;45224;50.904;6.038;2023-04-07T06:01:54;99759.94;;;7.84;100.00
59419;BME280;45224;50.904;6.038;2023-04-07T06:03:25;99766.03;;;7.90;100.00
59419;BME280;45224;50.904;6.038;2023-04-07T06:05:05;99758.25;;;7.86;100.00
59419;BME280;45224;50.904;6.038;2023-04-07T06:06:36;99766.72;;;7.78;100.00
59419;BME280;45224;50.904;6.038;2023-04-07T06:08:08;99760.72;;;7.77;100.00
59419;BME280;45224;50.904;6.038;2023-04-07T06:09:39;99756.41;;;7.76;100.00
59419;BME280;45224;50.904;6.038;2023-04-07T06:11:12;99761.63;;;7.82;100.00
59419;BME280;45224;50.904;6.038;2023-04-07T06:12:43;99773.53;;;7.71;100.00
59419;BME280;45224;50.904;6.038;2023-04-07T06:14:14;99773.63;;;7.80;100.00
59419;BME280;45224;50.904;6.038;2023-04-07T06:15:44;99772.72;;;7.78;100.00
59419;BME280;45224;50.904;6.038;2023-04-07T06:17:16;99777.09;;;7.82;100.00
59419;BME280;45224;50.904;6.038;2023-04-07T06:18:47;99777.00;;;7.76;100.00
59419;BME280;45224;50.904;6.038;2023-04-07T06:20:17;99782.13;;;7.73;100.00
59419;BME280;45224;50.904;6.038;2023-04-07T06:21:50;99770.72;;;7.49;100.00
59419;BME280;45224;50.904;6.038;2023-04-07T06:23:21;99782.03;;;7.64;100.00
59419;BME280;45224;50.904;6.038;2023-04-07T06:24:51;99780.38;;;7.71;100.00
59419;BME280;45224;50.904;6.038;2023-04-07T06:26:22;99785.59;;;7.75;100.00
59419;BME280;45224;50.904;6.038;2023-04-07T06:27:53;99786.53;;;7.82;100.00
59419;BME280;45224;50.904;6.038;2023-04-07T06:29:26;99789.13;;;7.83;100.00
59419;BME280;45224;50.904;6.038;2023-04-07T06:30:58;99790.81;;;7.84;100.00
59419;BME280;45224;50.904;6.038;2023-04-07T06:32:28;99791.66;;;7.80;100.00
59419;BME280;45224;50.904;6.038;2023-04-07T06:34:00;99790.00;;;7.85;100.00
59419;BME280;45224;50.904;6.038;2023-04-07T06:35:31;99802.91;;;7.89;100.00
59419;BME280;45224;50.904;6.038;2023-04-07T06:37:01;99796.03;;;7.91;100.00
59419;BME280;45224;50.904;6.038;2023-04-07T06:38:33;99790.13;;;7.96;100.00
59419;BME280;45224;50.904;6.038;2023-04-07T06:40:04;99788.38;;;7.95;100.00
59419;BME280;45224;50.904;6.038;2023-04-07T06:41:35;99793.44;;;7.88;100.00
59419;BME280;45224;50.904;6.038;2023-04-07T06:43:06;99788.31;;;7.91;100.00
59419;BME280;45224;50.904;6.038;2023-04-07T06:44:52;99794.34;;;7.90;100.00
59419;BME280;45224;50.904;6.038;2023-04-07T06:46:23;99799.50;;;7.94;100.00
59419;BME280;45224;50.904;6.038;2023-04-07T06:47:55;99797.81;;;7.95;100.00
59419;BME280;45224;50.904;6.038;2023-04-07T06:49:26;99804.53;;;7.80;100.00
59419;BME280;45224;50.904;6.038;2023-04-07T06:50:56;99802.94;;;7.92;100.00
59419;BME280;45224;50.904;6.038;2023-04-07T06:52:27;99809.75;;;7.86;100.00
59419;BME280;45224;50.904;6.038;2023-04-07T06:53:57;99811.44;;;7.88;100.00
59419;BME280;45224;50.904;6.038;2023-04-07T06:55:27;99802.84;;;7.85;100.00
59419;BME280;45224;50.904;6.038;2023-04-07T06:56:58;99803.81;;;7.94;100.00
59419;BME280;45224;50.904;6.038;2023-04-07T06:58:28;99810.75;;;7.99;100.00
59419;BME280;45224;50.904;6.038;2023-04-07T06:59:59;99807.22;;;7.94;100.00
59419;BME280;45224;50.904;6.038;2023-04-07T07:01:30;99806.47;;;8.03;100.00
59419;BME280;45224;50.904;6.038;2023-04-07T07:03:00;99812.47;;;8.02;100.00
59419;BME280;45224;50.904;6.038;2023-04-07T07:04:31;99815.09;;;8.07;100.00
59419;BME280;45224;50.904;6.038;2023-04-07T07:06:01;99817.66;;;8.07;100.00
59419;BME280;45224;50.904;6.038;2023-04-07T07:07:32;99815.03;;;8.02;100.00
59419;BME280;45224;50.904;6.038;2023-04-07T07:09:02;99815.09;;;8.07;100.00
59419;BME280;45224;50.904;6.038;2023-04-07T07:10:33;99817.75;;;8.13;100.00
59419;BME280;45224;50.904;6.038;2023-04-07T07:12:03;99822.06;;;8.18;100.00
59419;BME280;45224;50.904;6.038;2023-04-07T07:13:36;99814.34;;;8.18;100.00
59419;BME280;45224;50.904;6.038;2023-04-07T07:15:07;99815.25;;;8.20;100.00
59419;BME280;45224;50.904;6.038;2023-04-07T07:16:37;99820.41;;;8.20;100.00
59419;BME280;45224;50.904;6.038;2023-04-07T07:18:08;99821.31;;;8.26;100.00
59419;BME280;45224;50.904;6.038;2023-04-07T07:19:38;99821.34;;;8.30;100.00
59419;BME280;45224;50.904;6.038;2023-04-07T07:21:09;99820.44;;;8.28;100.00
59419;BME280;45224;50.904;6.038;2023-04-07T07:22:39;99819.69;;;8.35;100.00
59419;BME280;45224;50.904;6.038;2023-04-07T07:24:10;99825.63;;;8.30;100.00
59419;BME280;45224;50.904;6.038;2023-04-07T07:25:41;99824.78;;;8.31;100.00
59419;BME280;45224;50.904;6.038;2023-04-07T07:27:11;99837.75;;;8.40;100.00
59419;BME280;45224;50.904;6.038;2023-04-07T07:28:42;99830.91;;;8.42;100.00
59419;BME280;45224;50.904;6.038;2023-04-07T07:30:12;99833.53;;;8.45;100.00
59419;BME280;45224;50.904;6.038;2023-04-07T07:31:43;99843.78;;;8.42;100.00
59419;BME280;45224;50.904;6.038;2023-04-07T07:33:13;99840.41;;;8.45;100.00
59419;BME280;45224;50.904;6.038;2023-04-07T07:34:44;99843.84;;;8.45;100.00
59419;BME280;45224;50.904;6.038;2023-04-07T07:36:15;99842.16;;;8.47;100.00
59419;BME280;45224;50.904;6.038;2023-04-07T07:37:45;99848.16;;;8.46;100.00
59419;BME280;45224;50.904;6.038;2023-04-07T07:39:16;99847.25;;;8.44;100.00
59419;BME280;45224;50.904;6.038;2023-04-07T07:40:47;99848.13;;;8.43;100.00
59419;BME280;45224;50.904;6.038;2023-04-07T07:42:17;99848.06;;;8.40;100.00
59419;BME280;45224;50.904;6.038;2023-04-07T07:43:48;99856.59;;;8.36;100.00
59419;BME280;45224;50.904;6.038;2023-04-07T07:45:18;99848.06;;;8.40;100.00
59419;BME280;45224;50.904;6.038;2023-04-07T07:46:49;99852.31;;;8.38;100.00
59419;BME280;45224;50.904;6.038;2023-04-07T07:48:20;99855.81;;;8.41;100.00
59419;BME280;45224;50.904;6.038;2023-04-07T07:49:50;99853.25;;;8.41;100.00
59419;BME280;45224;50.904;6.038;2023-04-07T07:51:21;99854.09;;;8.42;100.00
59419;BME280;45224;50.904;6.038;2023-04-07T07:52:51;99851.59;;;8.45;100.00
59419;BME280;45224;50.904;6.038;2023-04-07T07:54:22;99856.72;;;8.45;100.00
59419;BME280;45224;50.904;6.038;2023-04-07T07:55:52;99855.91;;;8.46;100.00
59419;BME280;45224;50.904;6.038;2023-04-07T07:57:25;99851.50;;;8.42;100.00
59419;BME280;45224;50.904;6.038;2023-04-07T07:58:55;99858.47;;;8.45;100.00
59419;BME280;45224;50.904;6.038;2023-04-07T08:00:26;99867.94;;;8.50;100.00
59419;BME280;45224;50.904;6.038;2023-04-07T08:01:56;99858.50;;;8.52;100.00
59419;BME280;45224;50.904;6.038;2023-04-07T08:03:27;99854.91;;;8.35;100.00
59419;BME280;45224;50.904;6.038;2023-04-07T08:04:57;99857.53;;;8.43;100.00
59419;BME280;45224;50.904;6.038;2023-04-07T08:06:28;99861.06;;;8.49;100.00
59419;BME280;45224;50.904;6.038;2023-04-07T08:08:00;99865.41;;;8.53;100.00
59419;BME280;45224;50.904;6.038;2023-04-07T08:09:32;99861.06;;;8.49;100.00
59419;BME280;45224;50.904;6.038;2023-04-07T08:11:02;99869.69;;;8.53;100.00
59419;BME280;45224;50.904;6.038;2023-04-07T08:12:33;99866.22;;;8.51;100.00
59419;BME280;45224;50.904;6.038;2023-04-07T08:14:03;99866.25;;;8.54;100.00